Time;durP1;ratioP1;P1;durP2;ratioP2;P2;SDS_P1;SDS_P2;PMS_P1;PMS_P2;Temp;Humidity;BMP_temperature;BMP_pressure;BME280_temperature;BME280_humidity;BME280_pressure;Samples;Min_cycle;Max_cycle;Signal;HPM_P1;HPM_P2
2022/09/28 00:01:45;;;;;;;1.67;0.90;;;;;;;;;;5074619;28;20853;-71
2022/09/28 00:04:12;;;;;;;1.37;0.90;;;;;;;;;;5074148;28;20476;-71
2022/09/28 00:06:39;;;;;;;1.40;1.00;;;;;;;;;;5074243;28;20463;-71
2022/09/28 00:09:06;;;;;;;1.63;1.10;;;;;;;;;;5074386;28;20824;-71
2022/09/28 00:11:34;;;;;;;1.30;0.80;;;;;;;;;;5074214;28;20452;-71
2022/09/28 00:14:02;;;;;;;1.63;1.00;;;;;;;;;;5074044;28;20451;-71
2022/09/28 00:16:32;;;;;;;1.33;0.97;;;;;;;;;;5074019;28;20456;-71
2022/09/28 00:18:59;;;;;;;1.33;0.90;;;;;;;;;;5073928;28;20451;-71
2022/09/28 00:21:28;;;;;;;2.77;1.00;;;;;;;;;;5073207;28;20494;-71
2022/09/28 00:26:47;;;;;;;1.50;1.00;;;;;;;;;;5063117;28;20949;-71
2022/09/28 00:29:19;;;;;;;1.33;1.00;;;;;;;;;;5074057;28;20448;-71
2022/09/28 00:31:48;;;;;;;2.60;1.40;;;;;;;;;;5073851;28;20444;-71
2022/09/28 00:34:16;;;;;;;1.60;1.20;;;;;;;;;;5073572;28;20479;-71
2022/09/28 00:36:45;;;;;;;1.50;1.00;;;;;;;;;;5073518;28;20467;-71
2022/09/28 00:39:12;;;;;;;1.60;1.20;;;;;;;;;;5073767;28;20439;-71
2022/09/28 00:41:39;;;;;;;1.57;1.00;;;;;;;;;;5073739;28;20847;-71
2022/09/28 00:44:32;;;;;;;1.40;1.00;;;;;;;;;;5073346;28;20447;-71
2022/09/28 00:47:02;;;;;;;1.33;0.90;;;;;;;;;;5073779;28;20452;-71
2022/09/28 00:49:32;;;;;;;1.70;0.93;;;;;;;;;;5073723;28;20462;-71
2022/09/28 00:52:00;;;;;;;2.20;1.03;;;;;;;;;;5073525;28;20451;-71
2022/09/28 00:54:27;;;;;;;1.40;0.90;;;;;;;;;;5073145;28;20844;-71
2022/09/28 00:56:55;;;;;;;2.13;1.00;;;;;;;;;;5073355;28;20448;-71
2022/09/28 00:59:23;;;;;;;2.20;0.93;;;;;;;;;;5073386;28;20945;-71
2022/09/28 01:01:50;;;;;;;1.70;1.07;;;;;;;;;;5073198;28;20494;-71
2022/09/28 01:04:20;;;;;;;1.50;1.00;;;;;;;;;;5073139;28;20961;-71
2022/09/28 01:06:47;;;;;;;1.60;1.17;;;;;;;;;;5073320;28;20456;-71
2022/09/28 01:09:15;;;;;;;1.50;1.03;;;;;;;;;;5073429;28;20454;-71
2022/09/28 01:11:42;;;;;;;2.07;1.10;;;;;;;;;;5073320;28;20877;-71
2022/09/28 01:14:10;;;;;;;2.13;1.10;;;;;;;;;;5072946;28;20452;-71
2022/09/28 01:16:42;;;;;;;6.30;1.00;;;;;;;;;;5073108;28;20523;-71
2022/09/28 01:19:18;;;;;;;1.30;0.80;;;;;;;;;;5072688;28;20497;-71
2022/09/28 01:21:51;;;;;;;1.57;1.00;;;;;;;;;;5072993;28;20479;-71
2022/09/28 01:24:33;;;;;;;1.30;0.93;;;;;;;;;;5073089;28;20545;-71
2022/09/28 01:27:05;;;;;;;1.40;0.90;;;;;;;;;;5073225;28;20448;-71
2022/09/28 01:29:36;;;;;;;6.90;1.30;;;;;;;;;;5072964;28;20455;-71
2022/09/28 01:32:12;;;;;;;1.60;1.10;;;;;;;;;;5073025;28;20444;-72
2022/09/28 01:34:42;;;;;;;2.33;1.20;;;;;;;;;;5072700;28;20857;-72
2022/09/28 01:37:11;;;;;;;1.80;1.00;;;;;;;;;;5072882;28;20829;-72
2022/09/28 01:39:40;;;;;;;1.60;0.90;;;;;;;;;;5072963;28;20834;-73
2022/09/28 01:42:11;;;;;;;3.20;1.23;;;;;;;;;;5072841;28;20502;-73
2022/09/28 01:44:42;;;;;;;2.43;1.40;;;;;;;;;;5072611;28;20486;-72
2022/09/28 01:47:11;;;;;;;2.60;1.10;;;;;;;;;;5072953;28;20462;-72
2022/09/28 01:49:41;;;;;;;1.50;1.00;;;;;;;;;;5072788;28;20455;-73
2022/09/28 01:52:11;;;;;;;1.77;1.43;;;;;;;;;;5072964;28;20448;-73
2022/09/28 01:54:41;;;;;;;6.60;1.60;;;;;;;;;;5072773;28;20471;-73
2022/09/28 01:57:12;;;;;;;2.20;1.57;;;;;;;;;;5072997;28;20451;-73
2022/09/28 01:59:42;;;;;;;2.10;1.43;;;;;;;;;;5072838;28;20451;-73
2022/09/28 02:02:11;;;;;;;1.70;1.43;;;;;;;;;;5072701;28;20483;-73
2022/09/28 02:04:42;;;;;;;1.60;1.10;;;;;;;;;;5072292;28;20472;-72
2022/09/28 02:07:12;;;;;;;2.93;1.70;;;;;;;;;;5072660;28;20513;-72
2022/09/28 02:09:41;;;;;;;4.27;1.77;;;;;;;;;;5072571;28;20455;-72
2022/09/28 02:12:11;;;;;;;1.30;1.00;;;;;;;;;;5072655;28;20534;-72
2022/09/28 02:14:40;;;;;;;2.50;1.00;;;;;;;;;;5072211;28;20483;-72
2022/09/28 02:17:07;;;;;;;1.47;1.00;;;;;;;;;;5072557;28;20452;-72
2022/09/28 02:19:34;;;;;;;1.30;1.07;;;;;;;;;;5072288;28;20443;-72
2022/09/28 02:22:03;;;;;;;1.60;1.10;;;;;;;;;;5072545;28;20488;-72
2022/09/28 02:24:34;;;;;;;2.27;1.10;;;;;;;;;;5072265;28;20976;-72
2022/09/28 02:27:04;;;;;;;1.30;0.90;;;;;;;;;;5072541;28;20455;-72
2022/09/28 02:29:32;;;;;;;1.60;1.00;;;;;;;;;;5072575;28;20827;-72
2022/09/28 02:31:59;;;;;;;1.40;1.13;;;;;;;;;;5072591;28;20459;-72
2022/09/28 02:34:26;;;;;;;2.10;1.20;;;;;;;;;;5072492;28;20841;-72
2022/09/28 02:36:54;;;;;;;1.30;0.90;;;;;;;;;;5072624;28;20459;-71
2022/09/28 02:39:21;;;;;;;12.13;2.90;;;;;;;;;;5072925;28;20599;-71
2022/09/28 02:41:52;;;;;;;1.60;1.17;;;;;;;;;;5072648;28;20487;-71
2022/09/28 02:44:30;;;;;;;1.60;1.03;;;;;;;;;;5072934;28;20988;-71
2022/09/28 02:47:00;;;;;;;2.03;1.53;;;;;;;;;;5076110;28;20436;-72
2022/09/28 02:49:31;;;;;;;1.83;1.37;;;;;;;;;;5076316;28;20456;-71
2022/09/28 02:52:05;;;;;;;1.30;0.90;;;;;;;;;;5076221;28;20427;-72
2022/09/28 02:54:38;;;;;;;1.43;1.20;;;;;;;;;;5075847;28;20475;-72
2022/09/28 02:57:13;;;;;;;1.77;1.30;;;;;;;;;;5076211;28;20813;-72
2022/09/28 02:59:45;;;;;;;2.33;1.00;;;;;;;;;;5075958;28;20451;-72
2022/09/28 03:02:19;;;;;;;2.50;1.20;;;;;;;;;;5076034;28;20475;-72
2022/09/28 03:04:49;;;;;;;1.77;1.27;;;;;;;;;;5075908;28;20478;-72
2022/09/28 03:07:18;;;;;;;2.37;1.70;;;;;;;;;;5075994;28;20478;-72
2022/09/28 03:09:48;;;;;;;2.53;2.03;;;;;;;;;;5075984;28;20436;-72
2022/09/28 03:12:17;;;;;;;2.40;2.20;;;;;;;;;;5075915;28;20800;-72
2022/09/28 03:14:44;;;;;;;1.67;1.10;;;;;;;;;;5075757;28;20475;-72
2022/09/28 03:17:11;;;;;;;5.33;1.20;;;;;;;;;;5075684;28;20452;-72
2022/09/28 03:19:40;;;;;;;2.03;1.20;;;;;;;;;;5075864;28;20432;-71
2022/09/28 03:22:07;;;;;;;1.47;1.20;;;;;;;;;;5075616;28;20992;-71
2022/09/28 03:24:34;;;;;;;1.20;0.90;;;;;;;;;;5075250;28;20472;-71
2022/09/28 03:27:01;;;;;;;9.70;6.40;;;;;;;;;;5075613;28;20815;-71
2022/09/28 03:29:30;;;;;;;2.00;1.53;;;;;;;;;;5075563;28;20443;-71
2022/09/28 03:31:57;;;;;;;2.23;2.03;;;;;;;;;;5075277;28;20493;-71
2022/09/28 03:34:24;;;;;;;1.50;1.10;;;;;;;;;;5075439;28;20480;-72
2022/09/28 03:36:52;;;;;;;1.37;1.07;;;;;;;;;;5075250;28;20460;-72
2022/09/28 03:39:19;;;;;;;1.33;1.00;;;;;;;;;;5075414;28;20944;-72
2022/09/28 03:41:47;;;;;;;1.40;1.10;;;;;;;;;;5074989;28;20484;-72
2022/09/28 03:44:14;;;;;;;2.07;1.23;;;;;;;;;;5074873;28;20468;-72
2022/09/28 03:46:41;;;;;;;1.63;1.30;;;;;;;;;;5075289;28;20937;-72
2022/09/28 03:49:09;;;;;;;1.80;1.50;;;;;;;;;;5075216;28;20452;-72
2022/09/28 03:51:36;;;;;;;6.10;4.03;;;;;;;;;;5075142;28;20455;-72
2022/09/28 03:54:05;;;;;;;3.80;1.90;;;;;;;;;;5074972;28;20459;-72
2022/09/28 03:56:32;;;;;;;3.57;2.07;;;;;;;;;;5074741;28;20447;-72
2022/09/28 03:58:59;;;;;;;2.13;1.50;;;;;;;;;;5074842;28;20447;-72
2022/09/28 04:01:26;;;;;;;2.00;1.30;;;;;;;;;;5074658;28;20480;-72
2022/09/28 04:03:55;;;;;;;2.40;1.70;;;;;;;;;;5074737;28;20800;-72
2022/09/28 04:06:22;;;;;;;2.43;1.73;;;;;;;;;;5074557;28;20519;-72
2022/09/28 04:08:49;;;;;;;2.43;1.70;;;;;;;;;;5074764;28;20925;-72
2022/09/28 04:11:17;;;;;;;7.83;4.53;;;;;;;;;;5074692;28;20443;-72
2022/09/28 04:13:48;;;;;;;3.00;2.40;;;;;;;;;;5074588;28;20459;-71
2022/09/28 04:16:16;;;;;;;2.53;2.00;;;;;;;;;;5074266;28;20471;-71
2022/09/28 04:18:43;;;;;;;2.00;1.70;;;;;;;;;;5074508;28;20546;-72
2022/09/28 04:21:11;;;;;;;2.30;2.10;;;;;;;;;;5074212;28;20440;-72
2022/09/28 04:23:39;;;;;;;2.53;2.20;;;;;;;;;;5074441;28;20428;-72
2022/09/28 04:26:08;;;;;;;2.70;2.13;;;;;;;;;;5074349;28;20496;-72
2022/09/28 04:31:23;;;;;;;2.80;2.30;;;;;;;;;;5074146;28;20415;-72
2022/09/28 04:33:50;;;;;;;3.47;2.40;;;;;;;;;;5074128;28;20447;-71
2022/09/28 04:36:18;;;;;;;3.80;2.77;;;;;;;;;;5074089;28;20975;-71
2022/09/28 04:38:45;;;;;;;13.33;9.10;;;;;;;;;;5073584;28;20443;-71
2022/09/28 04:41:12;;;;;;;5.90;4.00;;;;;;;;;;5073186;28;20477;-71
2022/09/28 04:43:41;;;;;;;7.60;3.57;;;;;;;;;;5072827;28;20454;-71
2022/09/28 04:46:08;;;;;;;2.57;2.37;;;;;;;;;;5073123;28;20949;-71
2022/09/28 04:48:35;;;;;;;3.20;2.50;;;;;;;;;;5073141;28;20455;-71
2022/09/28 04:51:02;;;;;;;5.20;4.00;;;;;;;;;;5072736;28;20470;-72
2022/09/28 04:53:30;;;;;;;4.23;2.90;;;;;;;;;;5073019;28;20807;-72
2022/09/28 04:55:58;;;;;;;3.60;3.23;;;;;;;;;;5072704;28;20497;-72
2022/09/28 04:58:25;;;;;;;4.70;3.40;;;;;;;;;;5073058;28;20462;-71
2022/09/28 05:00:54;;;;;;;6.30;5.37;;;;;;;;;;5072989;28;20459;-72
2022/09/28 05:03:21;;;;;;;6.17;4.60;;;;;;;;;;5072926;28;21015;-72
2022/09/28 05:05:49;;;;;;;3.57;3.20;;;;;;;;;;5072870;28;21064;-72
2022/09/28 05:08:16;;;;;;;8.10;4.10;;;;;;;;;;5072192;28;20948;-72
2022/09/28 05:10:43;;;;;;;5.03;4.00;;;;;;;;;;5072600;28;20460;-71
2022/09/28 05:13:11;;;;;;;11.47;7.60;;;;;;;;;;5072889;28;20526;-71
2022/09/28 05:15:38;;;;;;;10.17;7.20;;;;;;;;;;5072700;28;20472;-72
2022/09/28 05:18:07;;;;;;;7.50;5.17;;;;;;;;;;5072442;28;20452;-72
2022/09/28 05:20:34;;;;;;;11.50;3.90;;;;;;;;;;5072464;28;20979;-72
2022/09/28 05:23:01;;;;;;;5.70;4.83;;;;;;;;;;5072520;28;20464;-71
2022/09/28 05:25:28;;;;;;;4.57;4.03;;;;;;;;;;5072647;28;21008;-71
2022/09/28 05:27:56;;;;;;;7.10;6.27;;;;;;;;;;5072841;28;20455;-71
2022/09/28 05:30:23;;;;;;;3.70;3.40;;;;;;;;;;5072335;28;20451;-71
2022/09/28 05:32:51;;;;;;;7.40;3.37;;;;;;;;;;5072796;28;20435;-71
2022/09/28 05:35:20;;;;;;;3.80;3.50;;;;;;;;;;5072466;28;20550;-71
2022/09/28 05:37:48;;;;;;;4.60;3.17;;;;;;;;;;5072208;28;20896;-71
2022/09/28 05:40:15;;;;;;;9.50;6.07;;;;;;;;;;5071353;28;20456;-71
2022/09/28 05:42:43;;;;;;;10.37;7.20;;;;;;;;;;5071614;28;20525;-71
2022/09/28 05:45:10;;;;;;;4.50;3.60;;;;;;;;;;5072081;28;20471;-71
2022/09/28 05:47:39;;;;;;;3.03;2.53;;;;;;;;;;5072090;28;20466;-72
2022/09/28 05:50:07;;;;;;;3.60;3.30;;;;;;;;;;5072162;28;20451;-71
2022/09/28 05:52:36;;;;;;;2.80;2.27;;;;;;;;;;5072204;28;20521;-71
2022/09/28 05:55:03;;;;;;;4.20;2.83;;;;;;;;;;5071690;28;20491;-71
2022/09/28 05:57:30;;;;;;;5.23;3.53;;;;;;;;;;5071827;28;20459;-71
2022/09/28 05:59:57;;;;;;;9.57;6.40;;;;;;;;;;5072303;28;20455;-71
2022/09/28 06:02:25;;;;;;;8.60;4.70;;;;;;;;;;5072202;28;20483;-71
2022/09/28 06:04:52;;;;;;;6.07;3.80;;;;;;;;;;5071666;28;20468;-71
2022/09/28 06:07:20;;;;;;;10.30;6.00;;;;;;;;;;5072081;28;20456;-71
2022/09/28 06:09:49;;;;;;;6.63;4.90;;;;;;;;;;5072052;28;20763;-71
2022/09/28 06:12:16;;;;;;;8.37;3.67;;;;;;;;;;5072063;28;20459;-71
2022/09/28 06:14:43;;;;;;;4.27;2.97;;;;;;;;;;5071854;28;20969;-71
2022/09/28 06:17:10;;;;;;;6.33;4.63;;;;;;;;;;5072106;28;20474;-71
2022/09/28 06:19:37;;;;;;;7.60;4.50;;;;;;;;;;5072608;28;20455;-71
2022/09/28 06:22:04;;;;;;;7.27;4.03;;;;;;;;;;5075830;28;20489;-71
2022/09/28 06:24:32;;;;;;;5.53;4.23;;;;;;;;;;5075678;28;20473;-71
2022/09/28 06:27:00;;;;;;;6.80;5.03;;;;;;;;;;5072877;28;20451;-71
2022/09/28 06:29:28;;;;;;;4.60;3.40;;;;;;;;;;5073601;28;20446;-72
2022/09/28 06:31:55;;;;;;;6.00;3.53;;;;;;;;;;5074329;28;20440;-72
2022/09/28 06:34:23;;;;;;;1.97;1.63;;;;;;;;;;5074291;28;20479;-72
2022/09/28 06:36:50;;;;;;;3.07;1.93;;;;;;;;;;5073932;28;20471;-72
2022/09/28 06:39:18;;;;;;;4.10;1.57;;;;;;;;;;5073656;28;20890;-71
2022/09/28 06:41:45;;;;;;;2.33;1.90;;;;;;;;;;5073987;28;20459;-71
2022/09/28 06:44:13;;;;;;;1.97;1.77;;;;;;;;;;5074053;28;20472;-71
2022/09/28 06:46:40;;;;;;;3.23;1.70;;;;;;;;;;5074075;28;20929;-71
2022/09/28 06:49:08;;;;;;;2.53;1.83;;;;;;;;;;5073727;28;20459;-71
2022/09/28 06:51:36;;;;;;;2.90;2.10;;;;;;;;;;5073920;28;20933;-72
2022/09/28 06:54:03;;;;;;;2.77;2.00;;;;;;;;;;5073936;28;20524;-71
2022/09/28 06:56:30;;;;;;;1.97;1.60;;;;;;;;;;5073537;28;20455;-71
2022/09/28 06:58:57;;;;;;;3.23;1.67;;;;;;;;;;5074083;28;20929;-71
2022/09/28 07:01:26;;;;;;;2.57;1.80;;;;;;;;;;5073474;28;20455;-71
2022/09/28 07:03:53;;;;;;;2.57;1.70;;;;;;;;;;5074157;28;20808;-72
2022/09/28 07:06:22;;;;;;;4.43;1.93;;;;;;;;;;5073736;28;20439;-72
2022/09/28 07:08:50;;;;;;;3.60;2.30;;;;;;;;;;5073742;28;20999;-71
2022/09/28 07:11:19;;;;;;;4.90;3.40;;;;;;;;;;5073476;28;20454;-71
2022/09/28 07:13:46;;;;;;;7.33;3.60;;;;;;;;;;5073615;28;21013;-72
2022/09/28 07:16:13;;;;;;;5.33;2.90;;;;;;;;;;5073500;28;20479;-72
2022/09/28 07:18:41;;;;;;;4.40;2.83;;;;;;;;;;5073262;28;20451;-71
2022/09/28 07:21:08;;;;;;;6.70;3.37;;;;;;;;;;5073522;28;20458;-72
2022/09/28 07:23:36;;;;;;;5.77;2.77;;;;;;;;;;5073396;28;20987;-71
2022/09/28 07:26:04;;;;;;;4.87;3.27;;;;;;;;;;5073409;28;20482;-71
2022/09/28 07:28:32;;;;;;;2.53;2.10;;;;;;;;;;5073423;28;20816;-72
2022/09/28 07:31:02;;;;;;;4.00;3.13;;;;;;;;;;5073219;28;20533;-71
2022/09/28 07:33:31;;;;;;;10.00;6.57;;;;;;;;;;5073348;28;20495;-71
2022/09/28 07:36:05;;;;;;;4.37;3.30;;;;;;;;;;5073201;28;20480;-72
2022/09/28 07:38:32;;;;;;;6.30;2.37;;;;;;;;;;5072605;28;20491;-72
2022/09/28 07:41:12;;;;;;;7.50;4.50;;;;;;;;;;5073526;28;20550;-72
2022/09/28 07:43:40;;;;;;;4.30;2.57;;;;;;;;;;5073095;28;20483;-72
2022/09/28 07:46:10;;;;;;;2.10;1.83;;;;;;;;;;5073157;28;20929;-72
2022/09/28 07:48:38;;;;;;;6.70;2.47;;;;;;;;;;5072902;28;20476;-72
2022/09/28 07:51:07;;;;;;;3.13;2.10;;;;;;;;;;5072868;28;20452;-72
2022/09/28 07:53:37;;;;;;;2.40;1.87;;;;;;;;;;5073093;28;20866;-72
2022/09/28 07:56:05;;;;;;;2.07;1.40;;;;;;;;;;5072891;28;20475;-71
2022/09/28 07:58:33;;;;;;;1.90;1.67;;;;;;;;;;5072598;28;20929;-71
2022/09/28 08:01:03;;;;;;;2.00;1.70;;;;;;;;;;5072852;28;20488;-71
2022/09/28 08:03:30;;;;;;;3.23;1.90;;;;;;;;;;5072345;28;20827;-72
2022/09/28 08:06:00;;;;;;;4.27;1.50;;;;;;;;;;5072666;28;20474;-71
2022/09/28 08:08:30;;;;;;;8.30;2.20;;;;;;;;;;5072459;28;20976;-72
2022/09/28 08:10:57;;;;;;;4.50;2.10;;;;;;;;;;5072572;28;20451;-72
2022/09/28 08:13:25;;;;;;;6.13;2.10;;;;;;;;;;5072549;28;20451;-72
2022/09/28 08:15:52;;;;;;;2.70;1.80;;;;;;;;;;5072773;28;20483;-72
2022/09/28 08:18:19;;;;;;;4.70;1.93;;;;;;;;;;5072573;28;20815;-71
2022/09/28 08:23:33;;;;;;;13.20;2.70;;;;;;;;;;5072074;28;20521;-72
2022/09/28 08:26:00;;;;;;;6.00;2.00;;;;;;;;;;5071902;28;20467;-72
2022/09/28 08:28:27;;;;;;;6.60;1.90;;;;;;;;;;5072389;28;20462;-73
2022/09/28 08:30:54;;;;;;;3.30;1.70;;;;;;;;;;5071840;28;20452;-72
2022/09/28 08:33:22;;;;;;;6.77;2.50;;;;;;;;;;5072045;28;20795;-72
2022/09/28 08:35:56;;;;;;;2.73;1.80;;;;;;;;;;5071682;28;20475;-73
2022/09/28 08:38:23;;;;;;;1.90;1.70;;;;;;;;;;5071491;28;20553;-73
2022/09/28 08:40:56;;;;;;;4.10;2.10;;;;;;;;;;5071966;28;20912;-72
2022/09/28 08:43:34;;;;;;;2.23;1.80;;;;;;;;;;5070768;28;20497;-72
2022/09/28 08:46:02;;;;;;;2.43;1.93;;;;;;;;;;5071845;28;20843;-72
2022/09/28 08:48:42;;;;;;;1.80;1.40;;;;;;;;;;5071743;28;20827;-72
2022/09/28 08:51:14;;;;;;;1.80;1.50;;;;;;;;;;5071787;28;20439;-72
2022/09/28 08:53:43;;;;;;;1.87;1.60;;;;;;;;;;5072158;28;20809;-72
2022/09/28 08:56:14;;;;;;;2.33;1.70;;;;;;;;;;5072228;28;20833;-72
2022/09/28 08:58:43;;;;;;;4.50;1.90;;;;;;;;;;5071778;28;20432;-72
2022/09/28 09:01:15;;;;;;;3.83;2.57;;;;;;;;;;5071864;28;20482;-72
2022/09/28 09:03:44;;;;;;;5.53;2.37;;;;;;;;;;5071893;28;20570;-72
2022/09/28 09:06:19;;;;;;;1.90;1.43;;;;;;;;;;5071420;28;20475;-72
2022/09/28 09:08:50;;;;;;;2.93;2.30;;;;;;;;;;5071662;28;20435;-72
2022/09/28 09:11:24;;;;;;;3.07;2.13;;;;;;;;;;5071946;28;20440;-73
2022/09/28 09:13:59;;;;;;;2.90;2.00;;;;;;;;;;5072034;28;20428;-72
2022/09/28 09:16:32;;;;;;;3.33;2.20;;;;;;;;;;5072139;28;20440;-72
2022/09/28 09:19:04;;;;;;;3.47;2.30;;;;;;;;;;5071774;28;20436;-72
2022/09/28 09:21:39;;;;;;;3.50;2.50;;;;;;;;;;5071681;28;20447;-72
2022/09/28 09:24:13;;;;;;;5.90;4.87;;;;;;;;;;5071618;28;20471;-73
2022/09/28 09:26:42;;;;;;;4.20;3.57;;;;;;;;;;5071586;28;20897;-72
2022/09/28 09:29:24;;;;;;;4.23;2.13;;;;;;;;;;5071635;28;20485;-73
2022/09/28 09:32:01;;;;;;;2.13;1.57;;;;;;;;;;5071713;28;20428;-72
2022/09/28 09:34:42;;;;;;;2.17;1.90;;;;;;;;;;5071414;28;20478;-72
2022/09/28 09:37:17;;;;;;;1.97;1.63;;;;;;;;;;5071327;28;21018;-72
2022/09/28 09:39:54;;;;;;;2.70;2.27;;;;;;;;;;5071468;28;20781;-72
2022/09/28 09:42:30;;;;;;;2.40;2.03;;;;;;;;;;5071289;28;20542;-72
2022/09/28 09:45:08;;;;;;;2.27;1.90;;;;;;;;;;5071379;28;20855;-72
2022/09/28 09:47:39;;;;;;;3.90;1.60;;;;;;;;;;5071391;28;20868;-72
2022/09/28 09:50:11;;;;;;;3.10;2.10;;;;;;;;;;5071373;28;20443;-72
2022/09/28 09:52:44;;;;;;;1.70;1.50;;;;;;;;;;5071209;28;20501;-72
2022/09/28 09:55:15;;;;;;;3.50;1.87;;;;;;;;;;5074915;28;20965;-72
2022/09/28 09:57:46;;;;;;;2.47;1.70;;;;;;;;;;5076609;28;20849;-72
2022/09/28 10:00:14;;;;;;;2.80;1.80;;;;;;;;;;5076016;28;20776;-72
2022/09/28 10:02:42;;;;;;;6.83;2.30;;;;;;;;;;5076516;28;21032;-72
2022/09/28 10:05:17;;;;;;;3.10;2.13;;;;;;;;;;5076571;28;20474;-72
2022/09/28 10:07:45;;;;;;;3.37;1.83;;;;;;;;;;5076610;28;20795;-72
2022/09/28 10:10:16;;;;;;;2.80;1.80;;;;;;;;;;5076555;28;20447;-72
2022/09/28 10:12:47;;;;;;;4.53;3.70;;;;;;;;;;5076196;28;20436;-72
2022/09/28 10:15:15;;;;;;;3.70;2.87;;;;;;;;;;5076448;28;20860;-72
2022/09/28 10:17:43;;;;;;;1.60;1.20;;;;;;;;;;5076126;28;20475;-72
2022/09/28 10:20:12;;;;;;;2.90;1.67;;;;;;;;;;5076352;28;20929;-72
2022/09/28 10:22:40;;;;;;;2.90;1.50;;;;;;;;;;5075952;28;20447;-72
2022/09/28 10:25:08;;;;;;;2.17;1.97;;;;;;;;;;5076097;28;20859;-72
2022/09/28 10:27:36;;;;;;;3.40;1.73;;;;;;;;;;5076202;28;20822;-72
2022/09/28 10:30:15;;;;;;;2.50;1.80;;;;;;;;;;5076330;28;20447;-72
2022/09/28 10:32:43;;;;;;;3.33;1.70;;;;;;;;;;5076141;28;20508;-72
2022/09/28 10:35:28;;;;;;;3.53;1.80;;;;;;;;;;5075999;28;20472;-72
2022/09/28 10:37:58;;;;;;;2.97;2.00;;;;;;;;;;5075795;28;20451;-72
2022/09/28 10:40:32;;;;;;;2.93;1.70;;;;;;;;;;5075979;28;20448;-72
2022/09/28 10:43:02;;;;;;;2.80;2.00;;;;;;;;;;5076336;28;20916;-72
2022/09/28 10:45:34;;;;;;;2.63;2.03;;;;;;;;;;5076195;28;20780;-72
2022/09/28 10:48:03;;;;;;;2.07;1.57;;;;;;;;;;5076413;28;20462;-72
2022/09/28 10:50:30;;;;;;;3.00;2.00;;;;;;;;;;5076318;28;20941;-72
2022/09/28 10:53:10;;;;;;;2.90;2.20;;;;;;;;;;5076264;28;20459;-72
2022/09/28 10:55:37;;;;;;;3.50;2.73;;;;;;;;;;5076785;28;20479;-72
2022/09/28 10:58:18;;;;;;;2.70;1.67;;;;;;;;;;5075870;28;20451;-72
2022/09/28 11:00:47;;;;;;;2.53;1.50;;;;;;;;;;5076164;28;20440;-71
2022/09/28 11:03:19;;;;;;;4.60;2.13;;;;;;;;;;5076024;28;20444;-71
2022/09/28 11:05:53;;;;;;;2.53;1.93;;;;;;;;;;5073893;28;20472;-72
2022/09/28 11:08:24;;;;;;;1.87;1.50;;;;;;;;;;5073044;28;20431;-72
2022/09/28 11:11:01;;;;;;;2.00;1.50;;;;;;;;;;5074413;28;20436;-72
2022/09/28 11:13:28;;;;;;;11.53;9.60;;;;;;;;;;5074359;28;20568;-72
2022/09/28 11:15:57;;;;;;;1.97;1.33;;;;;;;;;;5074018;28;20475;-72
2022/09/28 11:18:27;;;;;;;3.20;2.33;;;;;;;;;;5074444;28;20462;-72
2022/09/28 11:21:07;;;;;;;3.40;2.80;;;;;;;;;;5074210;28;20551;-71
2022/09/28 11:23:34;;;;;;;1.40;1.10;;;;;;;;;;5073905;28;20471;-72
2022/09/28 11:26:03;;;;;;;2.40;1.50;;;;;;;;;;5074041;28;20991;-72
2022/09/28 11:28:32;;;;;;;2.20;1.73;;;;;;;;;;5074339;28;20965;-72
2022/09/28 11:31:02;;;;;;;1.97;1.57;;;;;;;;;;5074196;28;20886;-72
2022/09/28 11:33:31;;;;;;;1.90;1.47;;;;;;;;;;5074237;28;20470;-72
2022/09/28 11:36:09;;;;;;;1.60;1.30;;;;;;;;;;5074186;28;20575;-72
2022/09/28 11:38:40;;;;;;;2.10;1.40;;;;;;;;;;5055118;28;20957;-72
2022/09/28 11:41:14;;;;;;;1.90;1.10;;;;;;;;;;5054742;28;20452;-72
2022/09/28 11:43:48;;;;;;;2.07;0.90;;;;;;;;;;5056329;28;20471;-72
2022/09/28 11:46:23;;;;;;;1.93;1.60;;;;;;;;;;5075161;28;20471;-72
2022/09/28 11:48:53;;;;;;;2.43;1.80;;;;;;;;;;5075274;28;20944;-72
2022/09/28 11:51:23;;;;;;;2.37;1.53;;;;;;;;;;5075027;28;20953;-72
2022/09/28 11:53:52;;;;;;;3.33;2.17;;;;;;;;;;5075050;28;20428;-72
2022/09/28 11:56:26;;;;;;;2.97;1.40;;;;;;;;;;5074865;28;20447;-72
2022/09/28 11:58:56;;;;;;;1.70;1.27;;;;;;;;;;5074837;28;20446;-72
2022/09/28 12:01:26;;;;;;;1.90;1.13;;;;;;;;;;5074734;28;20440;-71
2022/09/28 12:03:56;;;;;;;3.50;1.10;;;;;;;;;;5074820;28;20503;-71
2022/09/28 12:06:25;;;;;;;2.73;1.00;;;;;;;;;;5074331;28;20459;-71
2022/09/28 12:08:55;;;;;;;1.60;1.30;;;;;;;;;;5074809;28;20443;-71
2022/09/28 12:11:26;;;;;;;1.47;1.00;;;;;;;;;;5075081;28;20924;-71
2022/09/28 12:13:54;;;;;;;2.30;1.30;;;;;;;;;;5074323;28;20476;-71
2022/09/28 12:16:25;;;;;;;4.10;2.67;;;;;;;;;;5074297;28;20534;-71
2022/09/28 12:18:57;;;;;;;1.83;1.30;;;;;;;;;;5073689;28;20440;-71
2022/09/28 12:21:32;;;;;;;1.50;1.10;;;;;;;;;;5074598;28;20902;-71
2022/09/28 12:24:03;;;;;;;1.40;1.10;;;;;;;;;;5074427;28;20479;-71
2022/09/28 12:26:33;;;;;;;2.50;1.63;;;;;;;;;;5074187;28;20443;-71
2022/09/28 12:29:02;;;;;;;1.60;1.30;;;;;;;;;;5074245;28;20458;-71
2022/09/28 12:31:34;;;;;;;1.70;1.40;;;;;;;;;;5071845;28;20456;-71
2022/09/28 12:34:02;;;;;;;3.00;2.00;;;;;;;;;;5071539;28;20475;-71
2022/09/28 12:36:40;;;;;;;1.93;1.63;;;;;;;;;;5058136;28;20494;-71
2022/09/28 12:39:20;;;;;;;4.03;2.97;;;;;;;;;;5073961;28;20455;-71
2022/09/28 12:41:55;;;;;;;2.80;1.90;;;;;;;;;;5073940;28;20436;-71
2022/09/28 12:44:27;;;;;;;2.50;1.50;;;;;;;;;;5073328;28;20491;-71
2022/09/28 12:47:04;;;;;;;2.80;2.20;;;;;;;;;;5073475;28;20440;-71
2022/09/28 12:49:38;;;;;;;1.87;1.50;;;;;;;;;;5073813;28;20435;-71
2022/09/28 12:52:09;;;;;;;2.00;1.50;;;;;;;;;;5073112;28;20427;-71
2022/09/28 12:54:49;;;;;;;2.53;1.60;;;;;;;;;;5073067;28;20487;-71
2022/09/28 12:57:28;;;;;;;2.40;1.47;;;;;;;;;;5073610;28;20451;-71
2022/09/28 13:00:01;;;;;;;3.83;1.80;;;;;;;;;;5073650;28;20455;-71
2022/09/28 13:02:35;;;;;;;2.30;1.70;;;;;;;;;;5073614;28;20475;-71
2022/09/28 13:05:12;;;;;;;2.10;1.27;;;;;;;;;;5073249;28;20494;-71
2022/09/28 13:07:44;;;;;;;3.03;2.00;;;;;;;;;;5073669;28;20904;-71
2022/09/28 13:10:17;;;;;;;1.77;1.30;;;;;;;;;;5073759;28;20440;-71
2022/09/28 13:12:51;;;;;;;2.97;1.27;;;;;;;;;;5073431;28;20437;-71
2022/09/28 13:15:27;;;;;;;1.80;1.27;;;;;;;;;;5073209;28;20486;-71
2022/09/28 13:18:00;;;;;;;2.57;1.43;;;;;;;;;;5073382;28;20443;-72
2022/09/28 13:20:37;;;;;;;1.63;1.40;;;;;;;;;;5073678;28;20448;-72
2022/09/28 13:23:13;;;;;;;1.40;1.17;;;;;;;;;;5073451;28;20939;-72
2022/09/28 13:25:44;;;;;;;1.63;1.23;;;;;;;;;;5073305;28;20833;-72
2022/09/28 13:28:12;;;;;;;2.97;1.20;;;;;;;;;;5073252;28;20837;-72
2022/09/28 13:30:40;;;;;;;4.70;1.40;;;;;;;;;;5073183;28;20439;-72
2022/09/28 13:33:11;;;;;;;1.60;1.47;;;;;;;;;;5073463;28;20456;-72
2022/09/28 13:35:43;;;;;;;1.70;1.37;;;;;;;;;;5073197;28;20460;-72
2022/09/28 13:38:29;;;;;;;1.63;1.10;;;;;;;;;;5072965;28;20459;-72
2022/09/28 13:41:15;;;;;;;2.37;1.80;;;;;;;;;;5073494;28;20603;-72
2022/09/28 13:43:51;;;;;;;4.90;1.60;;;;;;;;;;5072925;28;20451;-72
2022/09/28 13:46:22;;;;;;;2.10;1.80;;;;;;;;;;5073263;28;20812;-72
2022/09/28 13:48:56;;;;;;;2.40;1.90;;;;;;;;;;5073212;28;20436;-71
2022/09/28 13:51:38;;;;;;;2.00;1.70;;;;;;;;;;5073084;28;20452;-72
2022/09/28 13:54:15;;;;;;;1.80;1.30;;;;;;;;;;5072763;28;20444;-72
2022/09/28 13:56:48;;;;;;;3.43;1.67;;;;;;;;;;5073066;28;20431;-72
2022/09/28 13:59:19;;;;;;;1.73;1.30;;;;;;;;;;5073088;28;20459;-72
2022/09/28 14:01:54;;;;;;;2.40;1.40;;;;;;;;;;5073129;28;20948;-72
2022/09/28 14:04:22;;;;;;;2.00;1.70;;;;;;;;;;5072818;28;20487;-72
2022/09/28 14:06:55;;;;;;;2.00;1.43;;;;;;;;;;5072812;28;20454;-72
2022/09/28 14:09:25;;;;;;;2.23;1.87;;;;;;;;;;5072812;28;20554;-72
2022/09/28 14:11:55;;;;;;;3.23;1.70;;;;;;;;;;5073007;28;20455;-72
2022/09/28 14:14:26;;;;;;;2.70;1.90;;;;;;;;;;5072373;28;20471;-72
2022/09/28 14:17:00;;;;;;;3.10;1.60;;;;;;;;;;5072689;28;20455;-72
2022/09/28 14:19:30;;;;;;;3.00;2.07;;;;;;;;;;5072642;28;20452;-72
2022/09/28 14:22:07;;;;;;;2.97;1.90;;;;;;;;;;5072873;28;20462;-71
2022/09/28 14:24:51;;;;;;;2.53;2.17;;;;;;;;;;5072246;28;20509;-72
2022/09/28 14:27:27;;;;;;;3.63;1.60;;;;;;;;;;5072525;28;20830;-72
2022/09/28 14:30:05;;;;;;;4.90;4.40;;;;;;;;;;5072552;28;20456;-72
2022/09/28 14:32:35;;;;;;;7.10;4.70;;;;;;;;;;5072664;28;20949;-72
2022/09/28 14:35:03;;;;;;;2.30;1.90;;;;;;;;;;5072218;28;20526;-72
2022/09/28 14:43:26;;;;;;;4.83;2.57;;;;;;;;;;5014432;28;20426;-72
2022/09/28 14:46:09;;;;;;;7.03;3.10;;;;;;;;;;5014033;28;20493;-72
2022/09/28 14:48:44;;;;;;;3.73;2.50;;;;;;;;;;5051954;28;20451;-72
2022/09/28 14:51:32;;;;;;;6.20;5.20;;;;;;;;;;5075889;28;20446;-73
2022/09/28 14:54:03;;;;;;;5.83;4.60;;;;;;;;;;5075998;28;20451;-73
2022/09/28 14:56:32;;;;;;;6.93;5.37;;;;;;;;;;5075876;28;20451;-73
2022/09/28 14:58:59;;;;;;;6.40;3.33;;;;;;;;;;5076000;28;20960;-73
2022/09/28 15:01:26;;;;;;;10.03;3.30;;;;;;;;;;5075706;28;20444;-73
2022/09/28 15:03:55;;;;;;;14.83;9.30;;;;;;;;;;5075500;28;20444;-73
2022/09/28 15:06:23;;;;;;;14.10;7.23;;;;;;;;;;5075757;28;20494;-73
2022/09/28 15:08:50;;;;;;;16.67;11.20;;;;;;;;;;5075846;28;20452;-73
2022/09/28 15:11:20;;;;;;;15.43;10.20;;;;;;;;;;5075648;28;20816;-73
2022/09/28 15:13:47;;;;;;;7.00;6.03;;;;;;;;;;5075579;28;20460;-73
2022/09/28 15:16:16;;;;;;;5.77;4.60;;;;;;;;;;5075234;28;20471;-73